sensor_id;sensor_type;location;lat;lon;timestamp;temperature;humidity
592;DHT22;283;53.608;10.046;2022-07-17T00:00:27;13.20;99.90
592;DHT22;283;53.608;10.046;2022-07-17T00:02:55;13.20;99.90
592;DHT22;283;53.608;10.046;2022-07-17T00:05:23;13.20;99.90
592;DHT22;283;53.608;10.046;2022-07-17T00:07:51;13.20;99.90
592;DHT22;283;53.608;10.046;2022-07-17T00:10:19;13.20;99.90
592;DHT22;283;53.608;10.046;2022-07-17T00:12:47;13.20;99.90
592;DHT22;283;53.608;10.046;2022-07-17T00:15:15;13.20;99.90
592;DHT22;283;53.608;10.046;2022-07-17T00:17:44;13.10;99.90
592;DHT22;283;53.608;10.046;2022-07-17T00:20:12;13.10;99.90
592;DHT22;283;53.608;10.046;2022-07-17T00:22:40;13.10;99.90
592;DHT22;283;53.608;10.046;2022-07-17T00:25:10;13.10;99.90
592;DHT22;283;53.608;10.046;2022-07-17T00:27:38;13.10;99.90
592;DHT22;283;53.608;10.046;2022-07-17T00:30:07;13.10;99.90
592;DHT22;283;53.608;10.046;2022-07-17T00:32:35;13.10;99.90
592;DHT22;283;53.608;10.046;2022-07-17T00:35:05;13.10;99.90
592;DHT22;283;53.608;10.046;2022-07-17T00:37:38;13.10;99.90
592;DHT22;283;53.608;10.046;2022-07-17T00:40:09;13.10;99.90
592;DHT22;283;53.608;10.046;2022-07-17T00:42:39;13.00;99.90
592;DHT22;283;53.608;10.046;2022-07-17T00:45:07;13.00;99.90
592;DHT22;283;53.608;10.046;2022-07-17T00:47:49;13.00;99.90
592;DHT22;283;53.608;10.046;2022-07-17T00:50:19;13.00;99.90
592;DHT22;283;53.608;10.046;2022-07-17T00:52:47;13.00;99.90
592;DHT22;283;53.608;10.046;2022-07-17T00:55:16;12.90;99.90
592;DHT22;283;53.608;10.046;2022-07-17T00:58:04;12.80;99.90
592;DHT22;283;53.608;10.046;2022-07-17T01:00:33;12.80;99.90
592;DHT22;283;53.608;10.046;2022-07-17T01:03:01;12.80;99.90
592;DHT22;283;53.608;10.046;2022-07-17T01:05:32;12.80;99.90
592;DHT22;283;53.608;10.046;2022-07-17T01:07:59;12.80;99.90
592;DHT22;283;53.608;10.046;2022-07-17T01:10:27;12.80;99.90
592;DHT22;283;53.608;10.046;2022-07-17T01:12:55;12.80;99.90
592;DHT22;283;53.608;10.046;2022-07-17T01:15:23;12.80;99.90
592;DHT22;283;53.608;10.046;2022-07-17T01:17:52;12.80;99.90
592;DHT22;283;53.608;10.046;2022-07-17T01:20:20;12.80;99.90
592;DHT22;283;53.608;10.046;2022-07-17T01:22:50;12.80;99.90
592;DHT22;283;53.608;10.046;2022-07-17T01:25:21;12.80;99.90
592;DHT22;283;53.608;10.046;2022-07-17T01:27:50;12.90;99.90
592;DHT22;283;53.608;10.046;2022-07-17T01:30:18;13.00;99.90
592;DHT22;283;53.608;10.046;2022-07-17T01:32:46;13.10;99.90
592;DHT22;283;53.608;10.046;2022-07-17T01:35:15;13.20;99.90
592;DHT22;283;53.608;10.046;2022-07-17T01:37:44;13.30;99.90
592;DHT22;283;53.608;10.046;2022-07-17T01:40:15;13.50;99.90
592;DHT22;283;53.608;10.046;2022-07-17T01:42:44;13.60;99.90
592;DHT22;283;53.608;10.046;2022-07-17T01:45:14;13.80;99.90
592;DHT22;283;53.608;10.046;2022-07-17T01:47:42;13.90;99.90
592;DHT22;283;53.608;10.046;2022-07-17T01:50:11;14.00;99.90
592;DHT22;283;53.608;10.046;2022-07-17T01:52:41;14.00;99.90
592;DHT22;283;53.608;10.046;2022-07-17T01:55:11;14.00;99.90
592;DHT22;283;53.608;10.046;2022-07-17T01:57:40;14.00;99.90
592;DHT22;283;53.608;10.046;2022-07-17T02:00:11;14.00;99.90
592;DHT22;283;53.608;10.046;2022-07-17T02:02:40;14.10;99.90
592;DHT22;283;53.608;10.046;2022-07-17T02:05:08;14.10;99.90
592;DHT22;283;53.608;10.046;2022-07-17T02:07:36;14.10;99.90
592;DHT22;283;53.608;10.046;2022-07-17T02:10:07;14.10;99.90
592;DHT22;283;53.608;10.046;2022-07-17T02:12:37;14.20;99.90
592;DHT22;283;53.608;10.046;2022-07-17T02:15:07;14.20;99.90
592;DHT22;283;53.608;10.046;2022-07-17T02:24:05;14.30;99.90
592;DHT22;283;53.608;10.046;2022-07-17T02:26:33;14.30;99.90
592;DHT22;283;53.608;10.046;2022-07-17T02:29:02;14.40;99.90
592;DHT22;283;53.608;10.046;2022-07-17T02:31:31;14.40;99.90
592;DHT22;283;53.608;10.046;2022-07-17T02:34:00;14.50;99.90
592;DHT22;283;53.608;10.046;2022-07-17T02:36:28;14.60;99.90
592;DHT22;283;53.608;10.046;2022-07-17T02:38:56;14.60;99.90
592;DHT22;283;53.608;10.046;2022-07-17T02:41:24;14.70;99.90
592;DHT22;283;53.608;10.046;2022-07-17T02:43:52;14.70;99.90
592;DHT22;283;53.608;10.046;2022-07-17T02:46:20;14.70;99.90
592;DHT22;283;53.608;10.046;2022-07-17T02:48:50;14.80;99.90
592;DHT22;283;53.608;10.046;2022-07-17T02:51:18;14.80;99.90
592;DHT22;283;53.608;10.046;2022-07-17T02:53:46;14.80;99.90
592;DHT22;283;53.608;10.046;2022-07-17T02:56:14;14.90;99.90
592;DHT22;283;53.608;10.046;2022-07-17T02:58:42;14.90;99.90
592;DHT22;283;53.608;10.046;2022-07-17T03:01:10;14.90;99.90
592;DHT22;283;53.608;10.046;2022-07-17T03:03:38;15.00;99.90
592;DHT22;283;53.608;10.046;2022-07-17T03:06:08;14.90;99.90
592;DHT22;283;53.608;10.046;2022-07-17T03:08:36;15.00;99.90
592;DHT22;283;53.608;10.046;2022-07-17T03:11:04;15.00;99.90
592;DHT22;283;53.608;10.046;2022-07-17T03:13:32;15.00;99.90
592;DHT22;283;53.608;10.046;2022-07-17T03:16:00;15.00;99.90
592;DHT22;283;53.608;10.046;2022-07-17T03:18:28;14.90;99.90
592;DHT22;283;53.608;10.046;2022-07-17T03:20:57;14.90;99.90
592;DHT22;283;53.608;10.046;2022-07-17T03:23:26;15.00;99.90
592;DHT22;283;53.608;10.046;2022-07-17T03:25:54;15.00;99.90
592;DHT22;283;53.608;10.046;2022-07-17T03:28:23;15.10;99.90
592;DHT22;283;53.608;10.046;2022-07-17T03:30:52;15.10;99.90
592;DHT22;283;53.608;10.046;2022-07-17T03:33:20;15.10;99.90
592;DHT22;283;53.608;10.046;2022-07-17T03:35:48;15.00;99.90
592;DHT22;283;53.608;10.046;2022-07-17T03:38:16;15.00;99.90
592;DHT22;283;53.608;10.046;2022-07-17T03:40:46;14.90;99.90
592;DHT22;283;53.608;10.046;2022-07-17T03:43:14;14.90;99.90
592;DHT22;283;53.608;10.046;2022-07-17T03:45:42;14.80;99.90
592;DHT22;283;53.608;10.046;2022-07-17T03:48:10;14.80;99.90
592;DHT22;283;53.608;10.046;2022-07-17T03:50:39;14.80;99.90
592;DHT22;283;53.608;10.046;2022-07-17T03:53:07;14.80;99.90
592;DHT22;283;53.608;10.046;2022-07-17T03:55:35;14.80;99.90
592;DHT22;283;53.608;10.046;2022-07-17T03:58:05;14.80;99.90
592;DHT22;283;53.608;10.046;2022-07-17T04:00:33;14.90;99.90
592;DHT22;283;53.608;10.046;2022-07-17T04:03:01;15.00;99.90
592;DHT22;283;53.608;10.046;2022-07-17T04:05:29;15.10;99.90
592;DHT22;283;53.608;10.046;2022-07-17T04:07:57;15.10;99.90
592;DHT22;283;53.608;10.046;2022-07-17T04:10:25;15.10;99.90
592;DHT22;283;53.608;10.046;2022-07-17T04:12:53;15.20;99.90
592;DHT22;283;53.608;10.046;2022-07-17T04:15:23;15.20;99.90
592;DHT22;283;53.608;10.046;2022-07-17T04:18:05;15.30;99.90
592;DHT22;283;53.608;10.046;2022-07-17T04:20:32;15.30;99.90
592;DHT22;283;53.608;10.046;2022-07-17T04:23:00;15.30;99.90
592;DHT22;283;53.608;10.046;2022-07-17T04:25:28;15.40;99.90
592;DHT22;283;53.608;10.046;2022-07-17T04:27:56;15.40;99.90
592;DHT22;283;53.608;10.046;2022-07-17T04:30:26;15.40;99.90
592;DHT22;283;53.608;10.046;2022-07-17T04:32:54;15.40;99.90
592;DHT22;283;53.608;10.046;2022-07-17T04:35:22;15.50;99.90
592;DHT22;283;53.608;10.046;2022-07-17T04:37:50;15.50;99.90
592;DHT22;283;53.608;10.046;2022-07-17T04:40:18;15.50;99.90
592;DHT22;283;53.608;10.046;2022-07-17T04:42:46;15.50;99.90
592;DHT22;283;53.608;10.046;2022-07-17T04:45:14;15.60;99.90
592;DHT22;283;53.608;10.046;2022-07-17T04:47:44;15.50;99.90
592;DHT22;283;53.608;10.046;2022-07-17T04:53:30;15.60;99.90
592;DHT22;283;53.608;10.046;2022-07-17T04:55:58;15.70;99.90
592;DHT22;283;53.608;10.046;2022-07-17T04:58:26;15.90;99.90
592;DHT22;283;53.608;10.046;2022-07-17T05:00:54;16.00;99.90
592;DHT22;283;53.608;10.046;2022-07-17T05:03:23;16.10;99.90
592;DHT22;283;53.608;10.046;2022-07-17T05:05:51;16.30;99.90
592;DHT22;283;53.608;10.046;2022-07-17T05:08:19;16.40;99.90
592;DHT22;283;53.608;10.046;2022-07-17T05:10:46;16.60;99.90
592;DHT22;283;53.608;10.046;2022-07-17T05:13:14;16.70;99.90
592;DHT22;283;53.608;10.046;2022-07-17T05:15:42;16.70;99.90
592;DHT22;283;53.608;10.046;2022-07-17T05:18:10;16.70;99.90
592;DHT22;283;53.608;10.046;2022-07-17T05:20:40;16.80;99.90
592;DHT22;283;53.608;10.046;2022-07-17T05:23:08;16.80;99.90
592;DHT22;283;53.608;10.046;2022-07-17T05:25:36;16.80;99.90
592;DHT22;283;53.608;10.046;2022-07-17T05:28:04;16.80;99.90
592;DHT22;283;53.608;10.046;2022-07-17T05:30:32;16.80;99.90
592;DHT22;283;53.608;10.046;2022-07-17T05:33:00;16.70;99.90
592;DHT22;283;53.608;10.046;2022-07-17T05:35:28;16.70;99.90
592;DHT22;283;53.608;10.046;2022-07-17T05:37:57;16.80;99.90
592;DHT22;283;53.608;10.046;2022-07-17T05:40:25;16.70;99.90
592;DHT22;283;53.608;10.046;2022-07-17T05:42:53;16.70;99.90
592;DHT22;283;53.608;10.046;2022-07-17T05:45:21;16.60;99.90
592;DHT22;283;53.608;10.046;2022-07-17T05:47:49;16.60;99.90
592;DHT22;283;53.608;10.046;2022-07-17T05:50:16;16.60;99.90
592;DHT22;283;53.608;10.046;2022-07-17T05:52:44;16.60;99.90
592;DHT22;283;53.608;10.046;2022-07-17T05:55:13;16.60;99.90
592;DHT22;283;53.608;10.046;2022-07-17T05:57:41;16.60;99.90
592;DHT22;283;53.608;10.046;2022-07-17T06:00:10;16.60;99.90
592;DHT22;283;53.608;10.046;2022-07-17T06:02:38;16.60;99.90
592;DHT22;283;53.608;10.046;2022-07-17T06:05:07;16.60;99.90
592;DHT22;283;53.608;10.046;2022-07-17T06:07:35;16.60;99.90
592;DHT22;283;53.608;10.046;2022-07-17T06:10:03;16.60;99.90
592;DHT22;283;53.608;10.046;2022-07-17T06:12:32;16.70;99.90
592;DHT22;283;53.608;10.046;2022-07-17T06:15:00;16.90;99.90
592;DHT22;283;53.608;10.046;2022-07-17T06:17:29;17.00;99.90
592;DHT22;283;53.608;10.046;2022-07-17T06:19:57;17.10;99.90
592;DHT22;283;53.608;10.046;2022-07-17T06:22:24;17.40;99.90
592;DHT22;283;53.608;10.046;2022-07-17T06:24:52;17.50;99.90
592;DHT22;283;53.608;10.046;2022-07-17T06:27:20;17.70;99.90
592;DHT22;283;53.608;10.046;2022-07-17T06:29:49;17.70;99.90
592;DHT22;283;53.608;10.046;2022-07-17T06:32:22;17.80;99.90
592;DHT22;283;53.608;10.046;2022-07-17T06:34:50;17.90;99.90
592;DHT22;283;53.608;10.046;2022-07-17T06:37:18;18.00;99.90
592;DHT22;283;53.608;10.046;2022-07-17T06:39:46;18.00;99.90
592;DHT22;283;53.608;10.046;2022-07-17T06:42:13;18.00;99.90
592;DHT22;283;53.608;10.046;2022-07-17T06:44:41;18.10;99.90
592;DHT22;283;53.608;10.046;2022-07-17T06:47:11;18.00;99.90
592;DHT22;283;53.608;10.046;2022-07-17T06:49:39;17.90;99.90
592;DHT22;283;53.608;10.046;2022-07-17T06:52:07;17.90;99.90
592;DHT22;283;53.608;10.046;2022-07-17T06:54:35;18.00;99.90
592;DHT22;283;53.608;10.046;2022-07-17T06:57:03;17.90;99.90
592;DHT22;283;53.608;10.046;2022-07-17T06:59:31;17.90;99.90
592;DHT22;283;53.608;10.046;2022-07-17T07:01:58;17.90;99.90
592;DHT22;283;53.608;10.046;2022-07-17T07:04:28;17.90;99.90
592;DHT22;283;53.608;10.046;2022-07-17T07:06:56;17.90;99.90
592;DHT22;283;53.608;10.046;2022-07-17T07:09:23;18.00;99.90
592;DHT22;283;53.608;10.046;2022-07-17T07:11:53;18.00;99.90
592;DHT22;283;53.608;10.046;2022-07-17T07:14:23;18.00;99.90
592;DHT22;283;53.608;10.046;2022-07-17T07:16:51;18.00;99.90
592;DHT22;283;53.608;10.046;2022-07-17T07:19:19;18.20;99.90
592;DHT22;283;53.608;10.046;2022-07-17T07:21:48;18.30;99.90
592;DHT22;283;53.608;10.046;2022-07-17T07:24:16;18.40;99.90
592;DHT22;283;53.608;10.046;2022-07-17T07:26:45;18.40;99.90
592;DHT22;283;53.608;10.046;2022-07-17T07:29:13;18.40;99.90
592;DHT22;283;53.608;10.046;2022-07-17T07:31:43;18.30;99.90
592;DHT22;283;53.608;10.046;2022-07-17T07:34:11;18.30;99.90
592;DHT22;283;53.608;10.046;2022-07-17T07:36:39;18.20;99.90
592;DHT22;283;53.608;10.046;2022-07-17T07:39:08;18.10;99.90
592;DHT22;283;53.608;10.046;2022-07-17T07:41:36;17.90;99.90
592;DHT22;283;53.608;10.046;2022-07-17T07:44:04;17.90;99.90
592;DHT22;283;53.608;10.046;2022-07-17T07:46:32;18.00;99.90
592;DHT22;283;53.608;10.046;2022-07-17T07:49:01;18.10;99.90
592;DHT22;283;53.608;10.046;2022-07-17T07:51:29;18.10;99.90
592;DHT22;283;53.608;10.046;2022-07-17T07:54:18;18.30;99.90
592;DHT22;283;53.608;10.046;2022-07-17T07:56:46;18.50;99.90
592;DHT22;283;53.608;10.046;2022-07-17T07:59:15;18.50;99.90
592;DHT22;283;53.608;10.046;2022-07-17T08:01:43;18.70;99.90
592;DHT22;283;53.608;10.046;2022-07-17T08:04:10;18.80;99.90
592;DHT22;283;53.608;10.046;2022-07-17T08:06:38;18.80;99.90
592;DHT22;283;53.608;10.046;2022-07-17T08:09:06;19.00;99.90
592;DHT22;283;53.608;10.046;2022-07-17T08:11:35;19.00;99.90
592;DHT22;283;53.608;10.046;2022-07-17T08:14:03;19.00;99.90
592;DHT22;283;53.608;10.046;2022-07-17T08:16:40;18.90;99.90
592;DHT22;283;53.608;10.046;2022-07-17T08:19:09;19.00;99.90
592;DHT22;283;53.608;10.046;2022-07-17T08:21:37;19.10;99.90
592;DHT22;283;53.608;10.046;2022-07-17T08:24:06;19.30;99.90
592;DHT22;283;53.608;10.046;2022-07-17T08:26:35;19.50;99.90
592;DHT22;283;53.608;10.046;2022-07-17T08:29:03;19.60;99.90
592;DHT22;283;53.608;10.046;2022-07-17T08:31:33;19.70;99.90
592;DHT22;283;53.608;10.046;2022-07-17T08:34:01;19.70;99.90
592;DHT22;283;53.608;10.046;2022-07-17T08:36:29;19.70;99.90
592;DHT22;283;53.608;10.046;2022-07-17T08:38:58;19.70;99.90
592;DHT22;283;53.608;10.046;2022-07-17T08:41:27;19.70;99.90
592;DHT22;283;53.608;10.046;2022-07-17T08:43:58;19.70;99.90
592;DHT22;283;53.608;10.046;2022-07-17T08:46:26;19.70;99.90
592;DHT22;283;53.608;10.046;2022-07-17T08:48:57;19.80;99.90
592;DHT22;283;53.608;10.046;2022-07-17T08:51:26;19.70;99.90
592;DHT22;283;53.608;10.046;2022-07-17T08:53:56;19.50;99.90
592;DHT22;283;53.608;10.046;2022-07-17T08:56:24;19.50;99.90
592;DHT22;283;53.608;10.046;2022-07-17T08:58:53;19.50;99.90
592;DHT22;283;53.608;10.046;2022-07-17T09:01:23;19.50;99.90
592;DHT22;283;53.608;10.046;2022-07-17T09:03:56;19.50;99.90
592;DHT22;283;53.608;10.046;2022-07-17T09:06:25;19.70;99.90
592;DHT22;283;53.608;10.046;2022-07-17T09:09:02;19.90;99.90
592;DHT22;283;53.608;10.046;2022-07-17T09:11:30;20.10;99.90
592;DHT22;283;53.608;10.046;2022-07-17T09:14:08;20.40;99.90
592;DHT22;283;53.608;10.046;2022-07-17T09:16:47;20.60;99.90
592;DHT22;283;53.608;10.046;2022-07-17T09:19:27;20.50;99.90
592;DHT22;283;53.608;10.046;2022-07-17T09:22:06;20.50;99.90
592;DHT22;283;53.608;10.046;2022-07-17T09:24:40;20.40;99.90
592;DHT22;283;53.608;10.046;2022-07-17T09:27:14;20.30;99.90
592;DHT22;283;53.608;10.046;2022-07-17T09:29:54;20.40;99.90
592;DHT22;283;53.608;10.046;2022-07-17T09:32:27;20.60;99.90
592;DHT22;283;53.608;10.046;2022-07-17T09:34:56;20.60;99.90
592;DHT22;283;53.608;10.046;2022-07-17T09:37:25;20.80;99.90
592;DHT22;283;53.608;10.046;2022-07-17T09:39:54;20.70;99.90
592;DHT22;283;53.608;10.046;2022-07-17T09:42:26;20.50;99.90
592;DHT22;283;53.608;10.046;2022-07-17T09:44:56;20.50;99.90
592;DHT22;283;53.608;10.046;2022-07-17T09:47:27;20.50;99.90
592;DHT22;283;53.608;10.046;2022-07-17T09:49:57;20.70;99.90
592;DHT22;283;53.608;10.046;2022-07-17T09:52:27;20.80;99.90
592;DHT22;283;53.608;10.046;2022-07-17T09:54:57;20.70;99.90
592;DHT22;283;53.608;10.046;2022-07-17T09:57:47;20.60;99.90
592;DHT22;283;53.608;10.046;2022-07-17T10:00:17;20.50;99.90
592;DHT22;283;53.608;10.046;2022-07-17T10:02:51;20.50;99.90
592;DHT22;283;53.608;10.046;2022-07-17T10:05:20;20.60;99.90
592;DHT22;283;53.608;10.046;2022-07-17T10:07:48;20.70;99.90
592;DHT22;283;53.608;10.046;2022-07-17T10:10:17;20.70;99.90
592;DHT22;283;53.608;10.046;2022-07-17T10:12:48;20.90;99.90
592;DHT22;283;53.608;10.046;2022-07-17T10:15:17;20.90;99.90
592;DHT22;283;53.608;10.046;2022-07-17T10:17:47;21.00;99.90
592;DHT22;283;53.608;10.046;2022-07-17T10:20:25;20.90;99.90
592;DHT22;283;53.608;10.046;2022-07-17T10:22:53;20.90;99.90
592;DHT22;283;53.608;10.046;2022-07-17T10:25:21;20.90;99.90
592;DHT22;283;53.608;10.046;2022-07-17T10:27:51;21.00;99.90
592;DHT22;283;53.608;10.046;2022-07-17T10:30:23;21.00;99.90
592;DHT22;283;53.608;10.046;2022-07-17T10:32:55;21.10;99.90
592;DHT22;283;53.608;10.046;2022-07-17T10:35:27;21.30;99.90
592;DHT22;283;53.608;10.046;2022-07-17T10:37:58;21.30;99.90
592;DHT22;283;53.608;10.046;2022-07-17T10:40:27;21.30;99.90
592;DHT22;283;53.608;10.046;2022-07-17T10:42:57;21.30;99.90
592;DHT22;283;53.608;10.046;2022-07-17T10:45:30;21.20;99.90
592;DHT22;283;53.608;10.046;2022-07-17T10:48:02;21.20;99.90
592;DHT22;283;53.608;10.046;2022-07-17T10:50:34;21.20;99.90
592;DHT22;283;53.608;10.046;2022-07-17T10:53:09;21.20;99.90
592;DHT22;283;53.608;10.046;2022-07-17T10:55:40;21.30;99.90
592;DHT22;283;53.608;10.046;2022-07-17T10:58:17;21.30;99.90
592;DHT22;283;53.608;10.046;2022-07-17T11:00:59;21.30;99.90
592;DHT22;283;53.608;10.046;2022-07-17T11:03:27;21.20;99.90
592;DHT22;283;53.608;10.046;2022-07-17T11:06:06;21.10;99.90
592;DHT22;283;53.608;10.046;2022-07-17T11:08:35;21.20;99.90
592;DHT22;283;53.608;10.046;2022-07-17T11:11:03;21.30;99.90
592;DHT22;283;53.608;10.046;2022-07-17T11:13:32;21.40;99.90
592;DHT22;283;53.608;10.046;2022-07-17T11:15:59;21.50;99.90
592;DHT22;283;53.608;10.046;2022-07-17T11:18:27;21.40;99.90
592;DHT22;283;53.608;10.046;2022-07-17T11:20:59;21.50;99.90
592;DHT22;283;53.608;10.046;2022-07-17T11:23:29;21.40;99.90
592;DHT22;283;53.608;10.046;2022-07-17T11:25:59;21.50;99.90
592;DHT22;283;53.608;10.046;2022-07-17T11:28:33;21.40;99.90
592;DHT22;283;53.608;10.046;2022-07-17T11:31:03;21.40;99.90
592;DHT22;283;53.608;10.046;2022-07-17T11:33:31;21.50;99.90
592;DHT22;283;53.608;10.046;2022-07-17T11:36:01;21.60;99.90
592;DHT22;283;53.608;10.046;2022-07-17T11:38:29;21.70;99.90
592;DHT22;283;53.608;10.046;2022-07-17T11:40:58;21.80;99.90
592;DHT22;283;53.608;10.046;2022-07-17T11:43:28;21.90;99.90
592;DHT22;283;53.608;10.046;2022-07-17T11:46:06;21.80;99.90
592;DHT22;283;53.608;10.046;2022-07-17T11:48:35;21.90;99.90
592;DHT22;283;53.608;10.046;2022-07-17T11:51:04;22.00;99.90
592;DHT22;283;53.608;10.046;2022-07-17T11:53:34;22.20;99.90
592;DHT22;283;53.608;10.046;2022-07-17T11:56:02;22.30;99.90
592;DHT22;283;53.608;10.046;2022-07-17T11:58:41;22.40;99.90
592;DHT22;283;53.608;10.046;2022-07-17T12:01:09;22.50;99.90
592;DHT22;283;53.608;10.046;2022-07-17T12:03:37;22.60;99.90
592;DHT22;283;53.608;10.046;2022-07-17T12:06:07;22.60;99.90
592;DHT22;283;53.608;10.046;2022-07-17T12:08:36;22.70;99.90
592;DHT22;283;53.608;10.046;2022-07-17T12:11:06;22.50;99.90
592;DHT22;283;53.608;10.046;2022-07-17T12:13:40;22.40;99.90
592;DHT22;283;53.608;10.046;2022-07-17T12:16:23;22.30;99.90
592;DHT22;283;53.608;10.046;2022-07-17T12:19:01;22.30;99.90
592;DHT22;283;53.608;10.046;2022-07-17T12:21:45;22.10;99.90
592;DHT22;283;53.608;10.046;2022-07-17T12:24:19;22.10;99.90
592;DHT22;283;53.608;10.046;2022-07-17T12:26:47;22.10;99.90
592;DHT22;283;53.608;10.046;2022-07-17T12:29:15;22.00;99.90
592;DHT22;283;53.608;10.046;2022-07-17T12:31:44;21.90;99.90
592;DHT22;283;53.608;10.046;2022-07-17T12:34:12;21.80;99.90
592;DHT22;283;53.608;10.046;2022-07-17T12:36:42;21.70;99.90
592;DHT22;283;53.608;10.046;2022-07-17T12:39:09;21.70;99.90
592;DHT22;283;53.608;10.046;2022-07-17T12:41:37;21.80;99.90
592;DHT22;283;53.608;10.046;2022-07-17T12:44:05;21.80;99.90
592;DHT22;283;53.608;10.046;2022-07-17T12:46:33;21.90;99.90
592;DHT22;283;53.608;10.046;2022-07-17T12:49:01;21.90;99.90
592;DHT22;283;53.608;10.046;2022-07-17T12:51:30;21.90;99.90
592;DHT22;283;53.608;10.046;2022-07-17T12:53:59;21.90;99.90
592;DHT22;283;53.608;10.046;2022-07-17T12:56:27;21.90;99.90
592;DHT22;283;53.608;10.046;2022-07-17T12:58:56;21.90;99.90
592;DHT22;283;53.608;10.046;2022-07-17T13:01:28;22.00;99.90
592;DHT22;283;53.608;10.046;2022-07-17T13:03:56;22.00;99.90
592;DHT22;283;53.608;10.046;2022-07-17T13:06:24;21.90;99.90
592;DHT22;283;53.608;10.046;2022-07-17T13:08:52;21.80;99.90
592;DHT22;283;53.608;10.046;2022-07-17T13:11:22;21.90;99.90
592;DHT22;283;53.608;10.046;2022-07-17T13:13:50;22.00;99.90
592;DHT22;283;53.608;10.046;2022-07-17T13:16:19;22.00;99.90
592;DHT22;283;53.608;10.046;2022-07-17T13:18:48;22.10;99.90
592;DHT22;283;53.608;10.046;2022-07-17T13:21:17;22.10;99.90
592;DHT22;283;53.608;10.046;2022-07-17T13:23:45;22.10;99.90
592;DHT22;283;53.608;10.046;2022-07-17T13:26:13;22.20;99.90
592;DHT22;283;53.608;10.046;2022-07-17T13:28:57;22.30;99.90
592;DHT22;283;53.608;10.046;2022-07-17T13:31:25;22.30;99.90
592;DHT22;283;53.608;10.046;2022-07-17T13:33:53;22.30;99.90
592;DHT22;283;53.608;10.046;2022-07-17T13:36:21;22.30;99.90
592;DHT22;283;53.608;10.046;2022-07-17T13:38:49;22.40;99.90
592;DHT22;283;53.608;10.046;2022-07-17T13:41:17;22.40;99.90
592;DHT22;283;53.608;10.046;2022-07-17T13:43:45;22.40;99.90
592;DHT22;283;53.608;10.046;2022-07-17T13:46:14;22.50;99.90
592;DHT22;283;53.608;10.046;2022-07-17T13:48:43;22.50;99.90
592;DHT22;283;53.608;10.046;2022-07-17T13:51:11;22.50;99.90
592;DHT22;283;53.608;10.046;2022-07-17T13:53:39;22.60;99.90
592;DHT22;283;53.608;10.046;2022-07-17T13:56:08;22.40;99.90
592;DHT22;283;53.608;10.046;2022-07-17T13:58:36;22.40;99.90
592;DHT22;283;53.608;10.046;2022-07-17T14:01:05;22.40;99.90
592;DHT22;283;53.608;10.046;2022-07-17T14:03:34;22.50;99.90
592;DHT22;283;53.608;10.046;2022-07-17T14:06:02;22.50;99.90
592;DHT22;283;53.608;10.046;2022-07-17T14:08:40;22.60;99.90
592;DHT22;283;53.608;10.046;2022-07-17T14:11:10;22.50;99.90
592;DHT22;283;53.608;10.046;2022-07-17T14:13:38;22.40;99.90
592;DHT22;283;53.608;10.046;2022-07-17T14:16:14;22.40;99.90
592;DHT22;283;53.608;10.046;2022-07-17T14:18:43;22.50;99.90
592;DHT22;283;53.608;10.046;2022-07-17T14:21:26;22.50;99.90
592;DHT22;283;53.608;10.046;2022-07-17T14:23:55;22.60;99.90
592;DHT22;283;53.608;10.046;2022-07-17T14:26:23;22.70;99.90
592;DHT22;283;53.608;10.046;2022-07-17T14:28:52;22.80;99.90
592;DHT22;283;53.608;10.046;2022-07-17T14:31:20;22.90;99.90
592;DHT22;283;53.608;10.046;2022-07-17T14:33:50;22.80;99.90
592;DHT22;283;53.608;10.046;2022-07-17T14:36:18;22.80;99.90
592;DHT22;283;53.608;10.046;2022-07-17T14:38:46;22.70;99.90
592;DHT22;283;53.608;10.046;2022-07-17T14:41:14;22.70;99.90
592;DHT22;283;53.608;10.046;2022-07-17T14:43:42;22.60;99.90
592;DHT22;283;53.608;10.046;2022-07-17T14:46:10;22.60;99.90
592;DHT22;283;53.608;10.046;2022-07-17T14:48:39;22.50;99.90
592;DHT22;283;53.608;10.046;2022-07-17T14:51:08;22.50;99.90
592;DHT22;283;53.608;10.046;2022-07-17T14:53:36;22.40;99.90
592;DHT22;283;53.608;10.046;2022-07-17T14:56:05;22.30;99.90
592;DHT22;283;53.608;10.046;2022-07-17T14:58:32;22.40;99.90
592;DHT22;283;53.608;10.046;2022-07-17T15:01:01;22.50;99.90
592;DHT22;283;53.608;10.046;2022-07-17T15:03:30;22.50;99.90
592;DHT22;283;53.608;10.046;2022-07-17T15:06:01;22.50;99.90
592;DHT22;283;53.608;10.046;2022-07-17T15:08:32;22.50;99.90
592;DHT22;283;53.608;10.046;2022-07-17T15:10:59;22.40;99.90
592;DHT22;283;53.608;10.046;2022-07-17T15:13:28;22.40;99.90
592;DHT22;283;53.608;10.046;2022-07-17T15:15:56;22.40;99.90
592;DHT22;283;53.608;10.046;2022-07-17T15:18:24;22.40;99.90
592;DHT22;283;53.608;10.046;2022-07-17T15:20:52;22.40;99.90
592;DHT22;283;53.608;10.046;2022-07-17T15:23:19;22.40;99.90
592;DHT22;283;53.608;10.046;2022-07-17T15:25:49;22.40;99.90
592;DHT22;283;53.608;10.046;2022-07-17T15:28:17;22.40;99.90
592;DHT22;283;53.608;10.046;2022-07-17T15:30:45;22.40;99.90
592;DHT22;283;53.608;10.046;2022-07-17T15:33:13;22.40;99.90
592;DHT22;283;53.608;10.046;2022-07-17T15:35:43;22.30;99.90
592;DHT22;283;53.608;10.046;2022-07-17T15:38:12;22.40;99.90
592;DHT22;283;53.608;10.046;2022-07-17T15:40:40;22.40;99.90
592;DHT22;283;53.608;10.046;2022-07-17T15:43:09;22.40;99.90
592;DHT22;283;53.608;10.046;2022-07-17T15:45:37;22.40;99.90
592;DHT22;283;53.608;10.046;2022-07-17T15:48:05;22.40;99.90
592;DHT22;283;53.608;10.046;2022-07-17T15:50:33;22.40;99.90
592;DHT22;283;53.608;10.046;2022-07-17T15:53:01;22.50;99.90
592;DHT22;283;53.608;10.046;2022-07-17T15:55:29;22.50;99.90
592;DHT22;283;53.608;10.046;2022-07-17T15:57:57;22.60;99.90
592;DHT22;283;53.608;10.046;2022-07-17T16:00:27;22.50;99.90
592;DHT22;283;53.608;10.046;2022-07-17T16:02:55;22.40;99.90
592;DHT22;283;53.608;10.046;2022-07-17T16:05:23;22.30;99.90
592;DHT22;283;53.608;10.046;2022-07-17T16:07:51;22.30;99.90
592;DHT22;283;53.608;10.046;2022-07-17T16:10:21;22.30;99.90
592;DHT22;283;53.608;10.046;2022-07-17T16:12:49;22.30;99.90
592;DHT22;283;53.608;10.046;2022-07-17T16:15:16;22.40;99.90
592;DHT22;283;53.608;10.046;2022-07-17T16:17:46;22.30;99.90
592;DHT22;283;53.608;10.046;2022-07-17T16:20:14;22.30;99.90
592;DHT22;283;53.608;10.046;2022-07-17T16:22:42;22.30;99.90
592;DHT22;283;53.608;10.046;2022-07-17T16:25:09;22.30;99.90
592;DHT22;283;53.608;10.046;2022-07-17T16:27:37;22.30;99.90
592;DHT22;283;53.608;10.046;2022-07-17T16:30:07;22.20;99.90
592;DHT22;283;53.608;10.046;2022-07-17T16:32:36;22.20;99.90
592;DHT22;283;53.608;10.046;2022-07-17T16:35:06;22.20;99.90
592;DHT22;283;53.608;10.046;2022-07-17T16:37:35;22.30;99.90
592;DHT22;283;53.608;10.046;2022-07-17T16:40:04;22.20;99.90